Time;durP1;ratioP1;P1;durP2;ratioP2;P2;SDS_P1;SDS_P2;PMS_P1;PMS_P2;Temp;Humidity;BMP_temperature;BMP_pressure;BME280_temperature;BME280_humidity;BME280_pressure;Samples;Min_cycle;Max_cycle;Signal;HPM_P1;HPM_P2
2022/07/30 00:02:04;;;;;;;;;;;;;;;16.63;76.03;96564.09;5076627;28;19963;-73
2022/07/30 00:04:31;;;;;;;;;;;;;;;16.62;76.23;96559.06;5084190;28;19985;-72
2022/07/30 00:06:57;;;;;;;;;;;;;;;16.59;76.50;96559.56;5077040;28;20426;-73
2022/07/30 00:09:23;;;;;;;;;;;;;;;16.55;76.56;96555.84;5055551;28;20429;-72
2022/07/30 00:11:49;;;;;;;;;;;;;;;16.52;76.78;96556.31;5072292;28;19981;-72
2022/07/30 00:14:15;;;;;;;;;;;;;;;16.50;76.79;96561.88;5073572;28;20018;-72
2022/07/30 00:16:41;;;;;;;;;;;;;;;16.48;76.77;96558.69;5074474;28;20004;-72
2022/07/30 00:19:07;;;;;;;;;;;;;;;16.47;77.38;96553.66;5073690;28;20368;-72
2022/07/30 00:21:33;;;;;;;;;;;;;;;16.46;77.49;96557.34;5072531;28;20514;-71
2022/07/30 00:23:59;;;;;;;;;;;;;;;16.46;77.57;96552.03;5079487;28;19961;-71
2022/07/30 00:26:24;;;;;;;;;;;;;;;16.46;77.24;96557.34;5071747;28;19999;-73
2022/07/30 00:28:50;;;;;;;;;;;;;;;16.45;77.77;96556.53;5080016;28;19961;-73
2022/07/30 00:31:16;;;;;;;;;;;;;;;16.46;77.94;96560.78;5072876;28;20333;-75
2022/07/30 00:33:42;;;;;;;;;;;;;;;16.46;78.02;96558.13;5054393;28;20051;-73
2022/07/30 00:36:08;;;;;;;;;;;;;;;16.46;78.14;96554.69;5071787;28;20017;-75
2022/07/30 00:38:34;;;;;;;;;;;;;;;16.43;78.53;96546.19;5080463;28;19961;-72
2022/07/30 00:41:00;;;;;;;;;;;;;;;16.44;78.46;96552.28;5072272;28;19968;-74
2022/07/30 00:43:25;;;;;;;;;;;;;;;16.43;78.30;96556.00;5072184;28;20414;-72
2022/07/30 00:45:51;;;;;;;;;;;;;;;16.42;78.15;96551.75;5077370;28;20057;-72
2022/07/30 00:48:17;;;;;;;;;;;;;;;16.42;77.70;96551.75;5082347;28;20007;-72
2022/07/30 00:50:43;;;;;;;;;;;;;;;16.41;78.19;96555.44;5076865;28;19992;-72
2022/07/30 00:53:09;;;;;;;;;;;;;;;16.40;77.88;96557.31;5075672;28;20006;-72
2022/07/30 00:55:35;;;;;;;;;;;;;;;16.40;78.41;96562.59;5076626;28;19982;-72
2022/07/30 00:58:01;;;;;;;;;;;;;;;16.41;78.14;96558.09;5075390;28;19974;-73
2022/07/30 01:00:27;;;;;;;;;;;;;;;16.41;78.53;96560.75;5076602;28;20438;-73
2022/07/30 01:02:53;;;;;;;;;;;;;;;16.41;78.68;96556.25;5059494;28;20078;-73
2022/07/30 01:05:19;;;;;;;;;;;;;;;16.42;78.53;96559.69;5076382;28;20069;-74
2022/07/30 01:07:45;;;;;;;;;;;;;;;16.41;78.48;96558.88;5064363;28;19965;-73
2022/07/30 01:10:12;;;;;;;;;;;;;;;16.41;79.01;96555.44;5076193;28;20310;-74
2022/07/30 01:12:39;;;;;;;;;;;;;;;16.42;78.79;96555.22;5076685;28;19998;-73
2022/07/30 01:15:07;;;;;;;;;;;;;;;16.42;79.29;96563.16;5076345;28;20459;-73
2022/07/30 01:17:33;;;;;;;;;;;;;;;16.42;79.39;96557.84;5075083;28;19961;-72
2022/07/30 01:20:05;;;;;;;;;;;;;;;16.42;79.35;96563.16;5076533;28;19970;-72
2022/07/30 01:22:39;;;;;;;;;;;;;;;16.42;79.30;96555.22;5086601;28;19976;-72
2022/07/30 01:25:26;;;;;;;;;;;;;;;16.44;79.74;96560.22;5075295;28;19989;-72
2022/07/30 01:28:01;;;;;;;;;;;;;;;16.43;79.89;96570.03;5082961;28;20445;-72
2022/07/30 01:30:28;;;;;;;;;;;;;;;16.43;79.93;96571.88;5082439;28;19958;-72
2022/07/30 01:32:56;;;;;;;;;;;;;;;16.43;80.06;96577.16;5086304;28;19962;-72
2022/07/30 01:35:23;;;;;;;;;;;;;;;16.43;80.27;96579.81;5083679;28;19962;-72
2022/07/30 01:37:50;;;;;;;;;;;;;;;16.41;80.50;96574.78;5079550;28;20349;-72
2022/07/30 01:40:17;;;;;;;;;;;;;;;16.39;80.18;96576.88;5075736;28;19964;-72
2022/07/30 01:42:43;;;;;;;;;;;;;;;16.36;80.33;96582.69;5086279;28;19961;-71
2022/07/30 01:45:11;;;;;;;;;;;;;;;16.33;80.05;96577.88;5064784;28;19977;-71
2022/07/30 01:47:38;;;;;;;;;;;;;;;16.31;81.05;96577.31;5081676;28;19970;-73
2022/07/30 01:50:05;;;;;;;;;;;;;;;16.30;80.68;96582.88;5076332;28;19965;-73
2022/07/30 01:52:32;;;;;;;;;;;;;;;16.27;80.73;96586.81;5074058;28;19968;-74
2022/07/30 01:54:59;;;;;;;;;;;;;;;16.27;80.58;96578.88;5078804;28;20430;-73
2022/07/30 01:57:25;;;;;;;;;;;;;;;16.27;80.85;96581.53;5081641;28;19961;-74
2022/07/30 01:59:54;;;;;;;;;;;;;;;16.27;80.78;96584.16;5077869;28;19977;-73
2022/07/30 02:02:20;;;;;;;;;;;;;;;16.26;80.79;96587.09;5080082;28;19969;-74
2022/07/30 02:04:46;;;;;;;;;;;;;;;16.24;80.61;96579.38;5075167;28;20390;-74
2022/07/30 02:07:38;;;;;;;;;;;;;;;16.24;81.10;96580.19;5076539;28;19962;-74
2022/07/30 02:10:06;;;;;;;;;;;;;;;16.22;81.09;96581.47;5069303;28;19966;-72
2022/07/30 02:12:33;;;;;;;;;;;;;;;16.20;80.95;96579.06;5083741;28;19982;-72
2022/07/30 02:15:09;;;;;;;;;;;;;;;16.19;81.12;96582.78;5075192;28;20335;-72
2022/07/30 02:17:42;;;;;;;;;;;;;;;16.18;80.87;96588.31;5082201;28;19960;-72
2022/07/30 02:20:09;;;;;;;;;;;;;;;16.14;80.77;96585.38;5075326;28;19964;-72
2022/07/30 02:22:37;;;;;;;;;;;;;;;16.13;80.56;96588.28;5078327;28;19968;-72
2022/07/30 02:25:03;;;;;;;;;;;;;;;16.11;80.77;96595.66;5075149;28;20430;-72
2022/07/30 02:27:30;;;;;;;;;;;;;;;16.09;81.27;96595.13;5072934;28;19969;-72
2022/07/30 02:29:58;;;;;;;;;;;;;;;16.07;81.29;96590.06;5074982;28;19959;-72
2022/07/30 02:32:25;;;;;;;;;;;;;;;16.05;81.07;96594.03;5055959;28;20441;-72
2022/07/30 02:34:54;;;;;;;;;;;;;;;16.03;81.07;96597.69;5073046;28;19957;-72
2022/07/30 02:37:22;;;;;;;;;;;;;;;16.01;81.13;96599.78;5082309;28;19960;-72
2022/07/30 02:39:49;;;;;;;;;;;;;;;15.99;81.16;96598.44;5074893;28;19956;-72
2022/07/30 02:42:16;;;;;;;;;;;;;;;15.97;81.05;96605.84;5080872;28;19963;-72
2022/07/30 02:44:44;;;;;;;;;;;;;;;15.94;81.13;96606.34;5072960;28;19963;-72
2022/07/30 02:47:11;;;;;;;;;;;;;;;15.90;81.27;96611.31;5080133;28;19965;-72
2022/07/30 02:49:38;;;;;;;;;;;;;;;15.86;81.25;96604.13;5074749;28;20405;-72
2022/07/30 02:52:07;;;;;;;;;;;;;;;15.82;81.42;96612.53;5057192;28;19965;-72
2022/07/30 02:54:35;;;;;;;;;;;;;;;15.80;81.22;96622.56;5073110;28;19964;-73
2022/07/30 02:57:02;;;;;;;;;;;;;;;15.78;81.40;96614.09;5089869;28;20317;-73
2022/07/30 02:59:30;;;;;;;;;;;;;;;15.76;81.58;96620.66;5074007;28;19959;-74
2022/07/30 03:01:56;;;;;;;;;;;;;;;15.73;81.91;96619.31;5078136;28;19968;-73
2022/07/30 03:04:24;;;;;;;;;;;;;;;15.70;81.20;96617.13;5074149;28;20445;-73
2022/07/30 03:06:51;;;;;;;;;;;;;;;15.69;81.22;96625.31;5063078;28;20464;-72
2022/07/30 03:09:18;;;;;;;;;;;;;;;15.66;81.25;96620.50;5074438;28;20336;-72
2022/07/30 03:11:44;;;;;;;;;;;;;;;15.63;81.25;96612.03;5078904;28;19984;-72
2022/07/30 03:14:11;;;;;;;;;;;;;;;15.61;81.22;96618.59;5073499;28;19968;-72
2022/07/30 03:16:37;;;;;;;;;;;;;;;15.59;81.54;96618.84;5056440;28;19955;-72
2022/07/30 03:19:05;;;;;;;;;;;;;;;15.57;81.47;96623.56;5074637;28;19970;-72
2022/07/30 03:21:33;;;;;;;;;;;;;;;15.55;81.47;96622.22;5078508;28;19965;-72
2022/07/30 03:24:02;;;;;;;;;;;;;;;15.53;81.74;96621.69;5073164;28;20047;-73
2022/07/30 03:26:29;;;;;;;;;;;;;;;15.50;82.03;96622.97;5081827;28;19985;-73
2022/07/30 03:28:55;;;;;;;;;;;;;;;15.51;81.55;96631.69;5071799;28;20321;-73
2022/07/30 03:31:21;;;;;;;;;;;;;;;15.49;81.42;96634.56;5079525;28;19965;-73
2022/07/30 03:33:47;;;;;;;;;;;;;;;15.50;81.75;96632.75;5055797;28;20410;-72
2022/07/30 03:36:14;;;;;;;;;;;;;;;15.48;81.81;96632.97;5076370;28;19982;-72
2022/07/30 03:38:41;;;;;;;;;;;;;;;15.48;81.81;96632.97;5073861;28;20315;-72
2022/07/30 03:41:07;;;;;;;;;;;;;;;15.48;81.63;96630.34;5063928;28;19971;-72
2022/07/30 03:43:34;;;;;;;;;;;;;;;15.46;81.28;96629.78;5074600;28;19956;-72
2022/07/30 03:46:01;;;;;;;;;;;;;;;15.46;81.43;96632.44;5071900;28;19985;-75
2022/07/30 03:48:28;;;;;;;;;;;;;;;15.45;81.30;96638.75;5075192;28;19971;-79
2022/07/30 03:50:54;;;;;;;;;;;;;;;15.43;81.13;96635.53;5077826;28;19961;-72
2022/07/30 03:53:23;;;;;;;;;;;;;;;15.43;81.08;96638.19;5073474;28;19964;-72
2022/07/30 03:55:50;;;;;;;;;;;;;;;15.42;81.00;96647.97;5075659;28;19972;-71
2022/07/30 03:58:16;;;;;;;;;;;;;;;15.39;81.33;96643.19;5073936;28;19962;-72
2022/07/30 04:00:45;;;;;;;;;;;;;;;15.36;80.98;96643.66;5085762;28;19969;-72
2022/07/30 04:03:12;;;;;;;;;;;;;;;15.34;81.36;96645.75;5072866;28;19962;-72
2022/07/30 04:05:38;;;;;;;;;;;;;;;15.33;81.39;96646.78;5082083;28;19974;-72
2022/07/30 04:08:04;;;;;;;;;;;;;;;15.32;81.06;96647.81;5071512;28;19965;-72
2022/07/30 04:10:29;;;;;;;;;;;;;;;15.30;81.17;96647.25;5073679;28;20331;-72
2022/07/30 04:12:55;;;;;;;;;;;;;;;15.30;81.34;96652.53;5073187;28;19992;-72
2022/07/30 04:15:21;;;;;;;;;;;;;;;15.28;81.10;96661.75;5073252;28;19971;-72
2022/07/30 04:17:48;;;;;;;;;;;;;;;15.27;81.52;96660.19;5073449;28;19968;-72
2022/07/30 04:20:26;;;;;;;;;;;;;;;15.23;81.10;96663.28;5076438;28;19980;-72
2022/07/30 04:22:52;;;;;;;;;;;;;;;15.18;81.88;96668.50;5059426;28;20419;-72
2022/07/30 04:25:19;;;;;;;;;;;;;;;15.17;81.46;96671.38;5080105;28;20040;-72
2022/07/30 04:27:45;;;;;;;;;;;;;;;15.16;81.64;96681.16;5065820;28;20441;-72
2022/07/30 04:30:11;;;;;;;;;;;;;;;15.15;81.76;96678.75;5082664;28;20449;-74
2022/07/30 04:32:37;;;;;;;;;;;;;;;15.14;81.87;96682.41;5076149;28;19962;-72
2022/07/30 04:35:03;;;;;;;;;;;;;;;15.13;81.89;96680.84;5083149;28;19960;-75
2022/07/30 04:37:29;;;;;;;;;;;;;;;15.14;81.68;96688.53;5077249;28;19962;-72
2022/07/30 04:39:56;;;;;;;;;;;;;;;15.18;81.85;96680.91;5061779;28;19964;-72
2022/07/30 04:42:28;;;;;;;;;;;;;;;15.23;81.50;96691.56;5086804;28;20332;-71
2022/07/30 04:44:55;;;;;;;;;;;;;;;15.28;82.09;96694.25;5078008;28;19973;-71
2022/07/30 04:47:21;;;;;;;;;;;;;;;15.33;82.16;96694.34;5077024;28;20059;-71
2022/07/30 04:49:48;;;;;;;;;;;;;;;15.41;82.26;96693.13;5080724;28;19961;-71
2022/07/30 04:52:14;;;;;;;;;;;;;;;15.50;81.93;96696.19;5086675;28;19969;-71
2022/07/30 04:54:48;;;;;;;;;;;;;;;15.59;81.99;96689.44;5082115;28;20057;-71
2022/07/30 04:57:14;;;;;;;;;;;;;;;15.72;81.89;96699.69;5077549;28;19958;-72
2022/07/30 04:59:40;;;;;;;;;;;;;;;15.86;81.73;96691.41;5081101;28;19961;-72
2022/07/30 05:02:07;;;;;;;;;;;;;;;16.03;81.52;96702.72;5066179;28;20405;-72
2022/07/30 05:04:34;;;;;;;;;;;;;;;16.23;81.26;96700.31;5080144;28;19953;-72
2022/07/30 05:07:00;;;;;;;;;;;;;;;16.47;80.81;96707.19;5075573;28;19985;-72
2022/07/30 05:09:27;;;;;;;;;;;;;;;16.71;79.90;96705.03;5073733;28;20372;-72
2022/07/30 05:11:54;;;;;;;;;;;;;;;16.97;79.39;96709.56;5075568;28;19986;-72
2022/07/30 05:14:21;;;;;;;;;;;;;;;17.23;78.29;96707.88;5075336;28;19968;-72
2022/07/30 05:16:46;;;;;;;;;;;;;;;17.50;78.01;96704.38;5075557;28;19970;-72
2022/07/30 05:19:12;;;;;;;;;;;;;;;17.75;77.07;96697.63;5072402;28;20014;-72
2022/07/30 05:21:38;;;;;;;;;;;;;;;18.01;76.57;96698.56;5083083;28;19976;-72
2022/07/30 05:24:04;;;;;;;;;;;;;;;18.26;75.55;96703.19;5075175;28;19954;-72
2022/07/30 05:26:30;;;;;;;;;;;;;;;18.50;74.68;96708.00;5077090;28;19977;-72
2022/07/30 05:28:56;;;;;;;;;;;;;;;18.73;74.46;96709.38;5082867;28;19969;-72
2022/07/30 05:31:23;;;;;;;;;;;;;;;18.97;73.51;96702.53;5076397;28;19968;-72
2022/07/30 05:33:48;;;;;;;;;;;;;;;19.19;71.41;96696.97;5083845;28;19965;-72
2022/07/30 05:36:14;;;;;;;;;;;;;;;19.35;67.33;96673.81;5081632;28;20472;-72
2022/07/30 05:38:40;;;;;;;;;;;;;;;19.45;68.24;96687.09;5079729;28;19970;-77
2022/07/30 05:41:06;;;;;;;;;;;;;;;19.66;68.21;96687.84;5075525;28;20436;-72
2022/07/30 05:43:32;;;;;;;;;;;;;;;19.86;65.37;96675.56;5076916;28;19961;-74
2022/07/30 05:45:58;;;;;;;;;;;;;;;19.98;65.96;96686.72;5075015;28;19977;-71
2022/07/30 05:48:25;;;;;;;;;;;;;;;20.22;64.13;96673.59;5085037;28;19972;-73
2022/07/30 05:50:51;;;;;;;;;;;;;;;20.43;64.36;96678.78;5082864;28;19979;-74
2022/07/30 05:53:17;;;;;;;;;;;;;;;20.66;65.48;96694.16;5064538;28;19965;-73
2022/07/30 05:55:43;;;;;;;;;;;;;;;20.97;65.25;96693.13;5080651;28;19980;-74
2022/07/30 05:58:08;;;;;;;;;;;;;;;21.24;63.91;96682.75;5079891;28;19999;-73
2022/07/30 06:00:34;;;;;;;;;;;;;;;21.50;63.60;96687.88;5074263;28;19989;-73
2022/07/30 06:03:01;;;;;;;;;;;;;;;21.75;62.52;96672.69;5072830;28;20044;-73
2022/07/30 06:05:27;;;;;;;;;;;;;;;21.99;62.22;96678.03;5070877;28;19977;-73
2022/07/30 06:07:53;;;;;;;;;;;;;;;22.22;61.72;96665.72;5074576;28;19971;-73
2022/07/30 06:10:19;;;;;;;;;;;;;;;22.43;60.98;96666.28;5075285;28;20413;-73
2022/07/30 06:12:45;;;;;;;;;;;;;;;22.61;60.21;96670.03;5010288;28;1811561;-73
2022/07/30 06:15:11;;;;;;;;;;;;;;;22.57;56.99;96636.94;5067146;28;19968;-73
2022/07/30 06:17:44;;;;;;;;;;;;;;;22.41;60.51;96679.13;5073630;28;19968;-72
2022/07/30 06:20:10;;;;;;;;;;;;;;;22.46;59.24;96673.72;5075003;28;19960;-74
2022/07/30 06:22:36;;;;;;;;;;;;;;;22.54;58.75;96659.69;5075060;28;19964;-74
2022/07/30 06:25:02;;;;;;;;;;;;;;;22.62;58.58;96664.41;5075293;28;19971;-72
2022/07/30 06:27:28;;;;;;;;;;;;;;;22.56;57.71;96659.41;5080178;28;19959;-72
2022/07/30 06:29:54;;;;;;;;;;;;;;;22.58;58.21;96665.28;5075029;28;19966;-72
2022/07/30 06:32:20;;;;;;;;;;;;;;;22.60;57.66;96655.09;5072739;28;19968;-78
2022/07/30 06:34:46;;;;;;;;;;;;;;;22.62;58.47;96668.94;5071798;28;19966;-72
2022/07/30 06:37:12;;;;;;;;;;;;;;;22.73;58.28;96658.91;5074720;28;20414;-73
2022/07/30 06:39:37;;;;;;;;;;;;;;;22.81;57.63;96653.69;5075609;28;20024;-73
2022/07/30 06:42:03;;;;;;;;;;;;;;;22.95;57.03;96653.75;5076459;28;19963;-73
2022/07/30 06:44:29;;;;;;;;;;;;;;;22.97;56.26;96648.88;5080575;28;19953;-73
2022/07/30 06:46:55;;;;;;;;;;;;;;;23.07;57.36;96659.44;5079938;28;19984;-73
2022/07/30 06:49:21;;;;;;;;;;;;;;;23.30;57.34;96659.59;5074874;28;19963;-73
2022/07/30 06:51:47;;;;;;;;;;;;;;;23.38;55.47;96634.03;5073551;28;19965;-74
2022/07/30 06:54:13;;;;;;;;;;;;;;;23.50;56.38;96647.75;5074308;28;20482;-73
2022/07/30 06:56:39;;;;;;;;;;;;;;;23.60;56.79;96650.22;5073440;28;20004;-73
2022/07/30 06:59:05;;;;;;;;;;;;;;;23.71;54.85;96643.56;5086124;28;19985;-73
2022/07/30 07:01:31;;;;;;;;;;;;;;;23.82;55.13;96638.06;5073279;28;20460;-73
2022/07/30 07:03:56;;;;;;;;;;;;;;;23.94;55.42;96649.06;5070472;28;19976;-72
2022/07/30 07:06:22;;;;;;;;;;;;;;;24.13;51.88;96613.28;5081933;28;20050;-73
2022/07/30 07:08:48;;;;;;;;;;;;;;;24.26;53.78;96620.53;5056359;28;19961;-72
2022/07/30 07:11:14;;;;;;;;;;;;;;;24.28;53.25;96621.81;5079422;28;19980;-72
2022/07/30 07:13:40;;;;;;;;;;;;;;;24.32;54.47;96635.41;5031806;28;19961;-71
2022/07/30 07:16:06;;;;;;;;;;;;;;;24.42;53.55;96637.03;5033098;28;19974;-72
2022/07/30 07:18:32;;;;;;;;;;;;;;;24.43;51.84;96612.63;5028844;28;20338;-72
2022/07/30 07:20:58;;;;;;;;;;;;;;;24.43;51.17;96615.31;5038330;28;20044;-72
2022/07/30 07:23:23;;;;;;;;;;;;;;;24.52;52.99;96639.53;5034997;28;20400;-73
2022/07/30 07:25:49;;;;;;;;;;;;;;;24.57;51.27;96614.47;5030938;28;19987;-71
2022/07/30 07:28:15;;;;;;;;;;;;;;;24.42;49.34;96623.66;5030502;28;19969;-71
2022/07/30 07:30:42;;;;;;;;;;;;;;;24.47;51.88;96650.34;5032975;28;19968;-72
2022/07/30 07:33:08;;;;;;;;;;;;;;;24.52;48.89;96621.53;5031632;28;19967;-72
2022/07/30 07:35:34;;;;;;;;;;;;;;;24.52;47.99;96618.88;5039978;28;19961;-72
2022/07/30 07:38:00;;;;;;;;;;;;;;;24.53;50.08;96651.84;5033968;28;20003;-71
2022/07/30 07:40:26;;;;;;;;;;;;;;;24.61;50.35;96653.00;5033875;28;19963;-72
2022/07/30 07:42:52;;;;;;;;;;;;;;;24.68;50.18;96639.97;5033635;28;19991;-72
2022/07/30 07:45:18;;;;;;;;;;;;;;;24.73;48.29;96629.13;5035303;28;20435;-72
2022/07/30 07:47:45;;;;;;;;;;;;;;;24.88;49.21;96646.75;5034976;28;19978;-73
2022/07/30 07:50:13;;;;;;;;;;;;;;;24.90;48.23;96639.19;5032437;28;19959;-72
2022/07/30 07:52:39;;;;;;;;;;;;;;;24.89;45.61;96622.28;5032728;28;19964;-73
2022/07/30 07:55:06;;;;;;;;;;;;;;;24.97;49.17;96662.88;5034276;28;19964;-72
2022/07/30 07:57:39;;;;;;;;;;;;;;;25.06;44.17;96631.56;5034159;28;19966;-72
2022/07/30 08:00:05;;;;;;;;;;;;;;;25.14;48.26;96702.50;5032865;28;20340;-72
2022/07/30 08:02:31;;;;;;;;;;;;;;;25.12;43.45;96697.41;5034647;28;19961;-72
2022/07/30 08:04:57;;;;;;;;;;;;;;;25.20;43.99;96707.47;5033634;28;19965;-72
2022/07/30 08:07:23;;;;;;;;;;;;;;;25.26;43.18;96684.75;5033346;28;19970;-71
2022/07/30 08:09:49;;;;;;;;;;;;;;;25.14;42.59;96692.53;5033532;28;19957;-71
2022/07/30 08:12:15;;;;;;;;;;;;;;;25.11;41.32;96687.78;5050374;28;20024;-72
2022/07/30 08:14:40;;;;;;;;;;;;;;;25.15;45.58;96726.31;5073331;28;19970;-73
2022/07/30 08:17:06;;;;;;;;;;;;;;;25.27;44.55;96709.69;5074227;28;20103;-72
2022/07/30 08:19:32;;;;;;;;;;;;;;;25.19;43.52;96703.16;5080163;28;20017;-74
2022/07/30 08:21:58;;;;;;;;;;;;;;;25.24;45.19;96724.53;5071223;28;19975;-74
2022/07/30 08:24:24;;;;;;;;;;;;;;;25.21;43.83;96708.25;5077284;28;20051;-78
2022/07/30 08:26:50;;;;;;;;;;;;;;;25.06;43.31;96709.38;5072325;28;19970;-73
2022/07/30 08:29:16;;;;;;;;;;;;;;;25.03;40.25;96699.22;5055423;28;20390;-72
2022/07/30 08:31:42;;;;;;;;;;;;;;;24.84;40.26;96688.69;5072141;28;19965;-73
2022/07/30 08:34:08;;;;;;;;;;;;;;;24.79;45.74;96713.75;5073079;28;19998;-72
2022/07/30 08:36:34;;;;;;;;;;;;;;;24.80;44.02;96695.75;5073201;28;20397;-72
2022/07/30 08:39:00;;;;;;;;;;;;;;;24.67;40.50;96689.34;5073546;28;19962;-72
2022/07/30 08:41:26;;;;;;;;;;;;;;;24.68;40.76;96694.41;5062387;28;20327;-72
2022/07/30 08:43:54;;;;;;;;;;;;;;;24.75;40.15;96696.66;5055325;28;19965;-72
2022/07/30 08:46:22;;;;;;;;;;;;;;;24.83;42.68;96704.00;5066811;28;19972;-72
2022/07/30 08:48:48;;;;;;;;;;;;;;;24.87;39.49;96696.91;5068141;28;19984;-73
2022/07/30 08:51:16;;;;;;;;;;;;;;;24.99;36.78;96685.66;5071883;28;19967;-73
2022/07/30 08:53:43;;;;;;;;;;;;;;;25.15;40.29;96709.44;5072998;28;19973;-73
2022/07/30 08:56:09;;;;;;;;;;;;;;;25.10;37.34;96686.19;5066401;28;19960;-74
2022/07/30 08:58:35;;;;;;;;;;;;;;;25.07;39.00;96697.53;5083094;28;19958;-73
2022/07/30 09:01:01;;;;;;;;;;;;;;;25.08;41.21;96713.34;5080412;28;19993;-73
2022/07/30 09:03:27;;;;;;;;;;;;;;;24.95;43.10;96714.19;5072061;28;19964;-73
2022/07/30 09:05:53;;;;;;;;;;;;;;;24.76;39.34;96706.31;5075569;28;19972;-73
2022/07/30 09:08:19;;;;;;;;;;;;;;;24.87;38.41;96688.09;5083514;28;19969;-74
2022/07/30 09:10:46;;;;;;;;;;;;;;;25.04;40.60;96700.84;5061506;28;19975;-73
2022/07/30 09:13:22;;;;;;;;;;;;;;;25.18;40.96;96715.00;5076017;28;19983;-73
2022/07/30 09:15:48;;;;;;;;;;;;;;;25.33;39.75;96696.97;5076330;28;19958;-74
2022/07/30 09:18:24;;;;;;;;;;;;;;;25.46;39.32;96694.16;5076271;28;19967;-74
2022/07/30 09:20:50;;;;;;;;;;;;;;;25.48;41.70;96712.66;5076332;28;19958;-74
2022/07/30 09:23:16;;;;;;;;;;;;;;;25.56;38.88;96703.88;5076392;28;20439;-73
2022/07/30 09:25:43;;;;;;;;;;;;;;;25.63;40.44;96714.16;5076641;28;20012;-73
2022/07/30 09:28:10;;;;;;;;;;;;;;;25.24;39.27;96695.00;5076260;28;19976;-73
2022/07/30 09:30:49;;;;;;;;;;;;;;;24.89;38.20;96689.38;5075811;28;20332;-73
2022/07/30 09:33:35;;;;;;;;;;;;;;;24.65;40.30;96708.44;5075879;28;19954;-73
2022/07/30 09:36:03;;;;;;;;;;;;;;;24.75;39.08;96695.88;5075585;28;20048;-73
2022/07/30 09:38:40;;;;;;;;;;;;;;;24.81;38.48;96703.50;5075896;28;19969;-73
2022/07/30 09:41:06;;;;;;;;;;;;;;;24.68;39.32;96693.63;5075946;28;19963;-73
2022/07/30 09:43:40;;;;;;;;;;;;;;;24.55;41.33;96713.19;5076172;28;19975;-73
2022/07/30 09:46:05;;;;;;;;;;;;;;;24.45;40.29;96692.75;5076248;28;20437;-73
2022/07/30 09:48:31;;;;;;;;;;;;;;;24.44;40.19;96700.00;5076030;28;19960;-73
2022/07/30 09:50:57;;;;;;;;;;;;;;;24.68;40.43;96699.78;5075719;28;19969;-74
2022/07/30 09:53:23;;;;;;;;;;;;;;;25.01;39.98;96704.13;5075692;28;20466;-73
2022/07/30 09:55:49;;;;;;;;;;;;;;;25.04;38.39;96695.47;5075854;28;19953;-73
2022/07/30 09:58:16;;;;;;;;;;;;;;;24.95;40.38;96706.16;5075984;28;20076;-74
2022/07/30 10:00:42;;;;;;;;;;;;;;;24.95;38.44;96690.03;5075637;28;19959;-74
2022/07/30 10:03:18;;;;;;;;;;;;;;;25.01;39.65;96699.56;5075623;28;19963;-74
2022/07/30 10:05:51;;;;;;;;;;;;;;;25.05;39.01;96687.13;5075553;28;19976;-73
2022/07/30 10:08:17;;;;;;;;;;;;;;;25.25;40.07;96704.63;5075888;28;19996;-74
2022/07/30 10:10:44;;;;;;;;;;;;;;;25.38;40.20;96694.91;5075568;28;20420;-74
2022/07/30 10:13:12;;;;;;;;;;;;;;;25.58;39.20;96684.78;5075205;28;19992;-75
2022/07/30 10:15:38;;;;;;;;;;;;;;;25.72;37.86;96675.50;5060138;28;19956;-73
2022/07/30 10:18:05;;;;;;;;;;;;;;;25.86;37.04;96674.59;5074088;28;20456;-75
2022/07/30 10:20:31;;;;;;;;;;;;;;;25.78;37.22;96681.50;5075601;28;19962;-74
2022/07/30 10:22:57;;;;;;;;;;;;;;;25.82;37.88;96679.78;5075179;28;19973;-73
2022/07/30 10:25:24;;;;;;;;;;;;;;;25.94;36.46;96667.72;5075017;28;19953;-74
2022/07/30 10:27:51;;;;;;;;;;;;;;;26.12;37.24;96672.00;5075142;28;19984;-74
2022/07/30 10:30:17;;;;;;;;;;;;;;;26.18;36.33;96662.69;5075075;28;19963;-74
2022/07/30 10:32:43;;;;;;;;;;;;;;;26.20;36.35;96673.91;5074822;28;19964;-74
2022/07/30 10:35:09;;;;;;;;;;;;;;;26.30;36.39;96667.47;5074987;28;19987;-74
2022/07/30 10:37:37;;;;;;;;;;;;;;;26.53;35.11;96654.69;5074774;28;19954;-73
2022/07/30 10:40:11;;;;;;;;;;;;;;;26.75;36.13;96671.78;5074268;28;19963;-73
2022/07/30 10:43:05;;;;;;;;;;;;;;;26.95;36.30;96662.28;5056852;28;19963;-73
2022/07/30 10:45:53;;;;;;;;;;;;;;;27.13;36.36;96661.13;5074245;28;19969;-74
2022/07/30 10:48:20;;;;;;;;;;;;;;;27.20;35.57;96655.28;5075040;28;20437;-73
2022/07/30 10:50:53;;;;;;;;;;;;;;;26.95;35.04;96659.59;5074610;28;19958;-74
2022/07/30 10:53:34;;;;;;;;;;;;;;;26.77;34.74;96651.53;5074773;28;19976;-74
2022/07/30 10:56:09;;;;;;;;;;;;;;;26.66;34.24;96647.59;5060546;28;19957;-74
2022/07/30 10:58:55;;;;;;;;;;;;;;;26.83;35.44;96665.63;5074272;28;19951;-74
2022/07/30 11:01:21;;;;;;;;;;;;;;;26.98;34.00;96650.88;5074436;28;19963;-74
2022/07/30 11:04:07;;;;;;;;;;;;;;;27.15;33.51;96648.13;5074391;28;19989;-73
2022/07/30 11:06:33;;;;;;;;;;;;;;;27.25;32.27;96649.75;5073887;28;19962;-73
2022/07/30 11:08:58;;;;;;;;;;;;;;;27.25;36.01;96664.00;5074583;28;19971;-73
2022/07/30 11:11:27;;;;;;;;;;;;;;;27.16;34.83;96671.28;5074125;28;19988;-73
2022/07/30 11:13:56;;;;;;;;;;;;;;;27.13;33.61;96661.13;5074308;28;19965;-74
2022/07/30 11:16:46;;;;;;;;;;;;;;;27.17;34.50;96662.06;5074191;28;19991;-74
2022/07/30 11:19:15;;;;;;;;;;;;;;;27.36;33.00;96642.09;5055393;28;19960;-73
2022/07/30 11:21:41;;;;;;;;;;;;;;;27.42;35.39;96665.06;5074238;28;19965;-74
2022/07/30 11:24:27;;;;;;;;;;;;;;;27.53;33.32;96650.94;5073918;28;20339;-73
2022/07/30 11:26:53;;;;;;;;;;;;;;;27.58;33.59;96649.16;5073235;28;20438;-73
2022/07/30 11:29:48;;;;;;;;;;;;;;;27.77;34.52;96654.16;5054906;28;19964;-73
2022/07/30 11:32:35;;;;;;;;;;;;;;;28.08;33.54;96643.88;5056761;28;19955;-73
2022/07/30 11:35:13;;;;;;;;;;;;;;;28.39;32.83;96628.44;5073885;28;19958;-74
2022/07/30 11:37:58;;;;;;;;;;;;;;;28.62;32.17;96627.03;5073657;28;19956;-73
2022/07/30 11:40:24;;;;;;;;;;;;;;;28.69;31.37;96634.59;5073673;28;19964;-76
2022/07/30 11:42:51;;;;;;;;;;;;;;;28.79;31.16;96633.38;5073505;28;20341;-74
2022/07/30 11:45:17;;;;;;;;;;;;;;;28.89;31.82;96624.84;5071482;28;19971;-73
2022/07/30 11:47:47;;;;;;;;;;;;;;;28.99;31.32;96619.03;5074840;28;20456;-74
2022/07/30 11:50:17;;;;;;;;;;;;;;;29.00;30.98;96631.44;5080633;28;19966;-73
2022/07/30 11:52:54;;;;;;;;;;;;;;;28.99;31.08;96623.66;5055758;28;19961;-73
2022/07/30 11:55:24;;;;;;;;;;;;;;;28.69;30.11;96629.97;5072449;28;19958;-73
2022/07/30 11:57:51;;;;;;;;;;;;;;;28.65;32.93;96642.53;5054803;28;20337;-73
2022/07/30 12:00:17;;;;;;;;;;;;;;;28.65;32.04;96636.34;5075667;28;19978;-73
2022/07/30 12:02:43;;;;;;;;;;;;;;;28.82;31.15;96638.91;5079993;28;19969;-73
2022/07/30 12:05:09;;;;;;;;;;;;;;;28.95;30.51;96629.72;5083162;28;19975;-71
2022/07/30 12:07:35;;;;;;;;;;;;;;;29.01;30.75;96633.00;5076658;28;19972;-74
2022/07/30 12:10:11;;;;;;;;;;;;;;;29.01;30.02;96633.00;5075671;28;20352;-72
2022/07/30 12:12:37;;;;;;;;;;;;;;;28.87;30.61;96627.91;5072515;28;20341;-74
2022/07/30 12:15:03;;;;;;;;;;;;;;;28.86;30.99;96630.94;5079685;28;19959;-73
2022/07/30 12:17:42;;;;;;;;;;;;;;;28.73;31.68;96636.28;5059848;28;20416;-73
2022/07/30 12:20:15;;;;;;;;;;;;;;;28.56;28.64;96622.13;5078917;28;19959;-73
2022/07/30 12:22:42;;;;;;;;;;;;;;;28.39;30.74;96629.25;5074062;28;20435;-73
2022/07/30 12:25:08;;;;;;;;;;;;;;;28.17;31.42;96637.63;5084986;28;20377;-74
2022/07/30 12:27:34;;;;;;;;;;;;;;;27.98;32.10;96643.47;5072189;28;19977;-73
2022/07/30 12:30:00;;;;;;;;;;;;;;;27.87;31.74;96637.66;5073322;28;20062;-73
2022/07/30 12:32:26;;;;;;;;;;;;;;;27.66;31.40;96635.66;5072477;28;19964;-74
2022/07/30 12:34:55;;;;;;;;;;;;;;;27.57;30.81;96636.81;5073186;28;20402;-73
2022/07/30 12:37:22;;;;;;;;;;;;;;;27.59;31.21;96631.88;5073186;28;19961;-74
2022/07/30 12:39:50;;;;;;;;;;;;;;;27.82;32.85;96640.50;5079785;28;20335;-73
2022/07/30 12:42:19;;;;;;;;;;;;;;;28.09;32.55;96639.25;5076057;28;20359;-73
2022/07/30 12:44:45;;;;;;;;;;;;;;;28.32;32.00;96635.13;5073164;28;19957;-74
2022/07/30 12:47:37;;;;;;;;;;;;;;;28.35;32.15;96633.72;5076989;28;19977;-73
2022/07/30 12:50:14;;;;;;;;;;;;;;;27.97;30.97;96625.69;5059873;28;19969;-73
2022/07/30 12:52:46;;;;;;;;;;;;;;;27.88;31.53;96623.84;5063568;28;19971;-74